sensor_id;sensor_type;location;lat;lon;timestamp;P1;durP1;ratioP1;P2;durP2;ratioP2
67712;SDS011;67640;55.784;49.138;2023-07-13T00:02:13;3.37;;;1.47;;
67712;SDS011;67640;55.784;49.138;2023-07-13T00:07:32;4.53;;;1.35;;
67712;SDS011;67640;55.784;49.138;2023-07-13T00:12:43;3.92;;;1.45;;
67712;SDS011;67640;55.784;49.138;2023-07-13T00:18:02;4.80;;;1.50;;
67712;SDS011;67640;55.784;49.138;2023-07-13T00:23:07;3.17;;;1.40;;
67712;SDS011;67640;55.784;49.138;2023-07-13T00:28:12;5.53;;;1.50;;
67712;SDS011;67640;55.784;49.138;2023-07-13T00:33:31;5.53;;;1.40;;
67712;SDS011;67640;55.784;49.138;2023-07-13T00:38:36;2.92;;;1.20;;
67712;SDS011;67640;55.784;49.138;2023-07-13T00:43:59;6.37;;;1.87;;
67712;SDS011;67640;55.784;49.138;2023-07-13T00:49:20;4.65;;;1.65;;
67712;SDS011;67640;55.784;49.138;2023-07-13T00:54:40;5.90;;;1.42;;
67712;SDS011;67640;55.784;49.138;2023-07-13T01:00:00;4.43;;;1.87;;
67712;SDS011;67640;55.784;49.138;2023-07-13T01:15:55;5.93;;;1.70;;
67712;SDS011;67640;55.784;49.138;2023-07-13T01:21:03;7.75;;;1.70;;
67712;SDS011;67640;55.784;49.138;2023-07-13T01:26:22;5.33;;;1.62;;
67712;SDS011;67640;55.784;49.138;2023-07-13T01:31:42;4.47;;;1.50;;
67712;SDS011;67640;55.784;49.138;2023-07-13T01:37:01;4.92;;;1.32;;
67712;SDS011;67640;55.784;49.138;2023-07-13T01:42:06;6.40;;;1.60;;
67712;SDS011;67640;55.784;49.138;2023-07-13T01:47:11;6.35;;;1.40;;
67712;SDS011;67640;55.784;49.138;2023-07-13T01:52:16;5.35;;;1.60;;
67712;SDS011;67640;55.784;49.138;2023-07-13T01:57:31;5.50;;;1.60;;
67712;SDS011;67640;55.784;49.138;2023-07-13T02:02:50;4.62;;;1.57;;
67712;SDS011;67640;55.784;49.138;2023-07-13T02:08:10;3.30;;;1.50;;
67712;SDS011;67640;55.784;49.138;2023-07-13T02:13:15;7.25;;;1.72;;
67712;SDS011;67640;55.784;49.138;2023-07-13T02:18:35;8.00;;;1.72;;
67712;SDS011;67640;55.784;49.138;2023-07-13T02:23:41;9.93;;;1.97;;
67712;SDS011;67640;55.784;49.138;2023-07-13T02:29:00;6.35;;;1.95;;
67712;SDS011;67640;55.784;49.138;2023-07-13T02:34:05;3.98;;;1.60;;
67712;SDS011;67640;55.784;49.138;2023-07-13T02:39:10;6.80;;;1.80;;
67712;SDS011;67640;55.784;49.138;2023-07-13T02:44:30;7.28;;;2.40;;
67712;SDS011;67640;55.784;49.138;2023-07-13T02:49:49;5.17;;;1.55;;
67712;SDS011;67640;55.784;49.138;2023-07-13T02:55:08;4.65;;;1.70;;
67712;SDS011;67640;55.784;49.138;2023-07-13T03:00:13;4.12;;;1.72;;
67712;SDS011;67640;55.784;49.138;2023-07-13T03:05:20;3.30;;;1.63;;
67712;SDS011;67640;55.784;49.138;2023-07-13T03:10:25;6.65;;;2.02;;
67712;SDS011;67640;55.784;49.138;2023-07-13T03:15:34;5.58;;;2.70;;
67712;SDS011;67640;55.784;49.138;2023-07-13T03:20:54;4.05;;;1.70;;
67712;SDS011;67640;55.784;49.138;2023-07-13T03:26:14;4.53;;;1.60;;
67712;SDS011;67640;55.784;49.138;2023-07-13T03:31:20;4.10;;;1.87;;
67712;SDS011;67640;55.784;49.138;2023-07-13T03:36:28;9.40;;;1.52;;
67712;SDS011;67640;55.784;49.138;2023-07-13T03:41:47;3.85;;;1.60;;
67712;SDS011;67640;55.784;49.138;2023-07-13T03:46:52;4.53;;;1.80;;
67712;SDS011;67640;55.784;49.138;2023-07-13T03:52:11;4.25;;;1.60;;
67712;SDS011;67640;55.784;49.138;2023-07-13T03:57:30;4.10;;;1.70;;
67712;SDS011;67640;55.784;49.138;2023-07-13T04:02:50;5.70;;;1.90;;
67712;SDS011;67640;55.784;49.138;2023-07-13T04:08:09;12.73;;;2.00;;
67712;SDS011;67640;55.784;49.138;2023-07-13T04:13:14;7.83;;;2.00;;
67712;SDS011;67640;55.784;49.138;2023-07-13T04:18:19;7.62;;;2.15;;
67712;SDS011;67640;55.784;49.138;2023-07-13T04:23:24;6.08;;;1.90;;
67712;SDS011;67640;55.784;49.138;2023-07-13T04:28:43;3.73;;;2.00;;
67712;SDS011;67640;55.784;49.138;2023-07-13T04:33:48;7.33;;;1.90;;
67712;SDS011;67640;55.784;49.138;2023-07-13T04:39:07;7.70;;;2.10;;
67712;SDS011;67640;55.784;49.138;2023-07-13T04:44:13;4.62;;;1.62;;
67712;SDS011;67640;55.784;49.138;2023-07-13T04:49:18;8.43;;;2.45;;
67712;SDS011;67640;55.784;49.138;2023-07-13T04:54:37;9.57;;;2.30;;
67712;SDS011;67640;55.784;49.138;2023-07-13T04:59:56;9.73;;;2.08;;
67712;SDS011;67640;55.784;49.138;2023-07-13T05:05:16;5.63;;;1.80;;
67712;SDS011;67640;55.784;49.138;2023-07-13T05:10:21;6.17;;;1.98;;
67712;SDS011;67640;55.784;49.138;2023-07-13T05:15:28;7.85;;;2.08;;
67712;SDS011;67640;55.784;49.138;2023-07-13T05:20:33;9.20;;;2.80;;
67712;SDS011;67640;55.784;49.138;2023-07-13T05:25:50;9.10;;;2.40;;
67712;SDS011;67640;55.784;49.138;2023-07-13T05:30:56;6.50;;;2.25;;
67712;SDS011;67640;55.784;49.138;2023-07-13T05:36:02;8.07;;;2.37;;
67712;SDS011;67640;55.784;49.138;2023-07-13T05:41:21;11.90;;;2.20;;
67712;SDS011;67640;55.784;49.138;2023-07-13T05:46:40;8.10;;;2.77;;
67712;SDS011;67640;55.784;49.138;2023-07-13T05:51:59;6.80;;;2.47;;
67712;SDS011;67640;55.784;49.138;2023-07-13T05:57:04;120.15;;;11.88;;
67712;SDS011;67640;55.784;49.138;2023-07-13T06:02:09;10.13;;;2.70;;
67712;SDS011;67640;55.784;49.138;2023-07-13T06:07:29;4.10;;;2.23;;
67712;SDS011;67640;55.784;49.138;2023-07-13T06:12:34;8.58;;;2.50;;
67712;SDS011;67640;55.784;49.138;2023-07-13T06:17:53;5.67;;;2.33;;
67712;SDS011;67640;55.784;49.138;2023-07-13T06:23:13;9.20;;;2.20;;
67712;SDS011;67640;55.784;49.138;2023-07-13T06:28:32;6.87;;;2.67;;
67712;SDS011;67640;55.784;49.138;2023-07-13T06:33:51;17.13;;;2.40;;
67712;SDS011;67640;55.784;49.138;2023-07-13T06:38:56;6.25;;;2.30;;
67712;SDS011;67640;55.784;49.138;2023-07-13T06:44:02;21.70;;;4.08;;
67712;SDS011;67640;55.784;49.138;2023-07-13T06:49:19;7.83;;;2.25;;
67712;SDS011;67640;55.784;49.138;2023-07-13T06:54:25;4.45;;;2.35;;
67712;SDS011;67640;55.784;49.138;2023-07-13T06:59:29;4.17;;;2.00;;
67712;SDS011;67640;55.784;49.138;2023-07-13T07:04:49;7.93;;;1.90;;
67712;SDS011;67640;55.784;49.138;2023-07-13T07:10:08;6.17;;;2.02;;
67712;SDS011;67640;55.784;49.138;2023-07-13T07:15:27;6.40;;;2.45;;
67712;SDS011;67640;55.784;49.138;2023-07-13T07:20:32;4.80;;;2.10;;
67712;SDS011;67640;55.784;49.138;2023-07-13T07:25:52;4.35;;;1.60;;
67712;SDS011;67640;55.784;49.138;2023-07-13T07:30:58;10.43;;;1.80;;
67712;SDS011;67640;55.784;49.138;2023-07-13T07:36:03;6.03;;;1.70;;
67712;SDS011;67640;55.784;49.138;2023-07-13T07:41:22;4.20;;;1.60;;
67712;SDS011;67640;55.784;49.138;2023-07-13T07:46:41;3.97;;;1.50;;
67712;SDS011;67640;55.784;49.138;2023-07-13T07:52:00;5.28;;;1.60;;
67712;SDS011;67640;55.784;49.138;2023-07-13T07:57:06;4.28;;;1.70;;
67712;SDS011;67640;55.784;49.138;2023-07-13T08:02:11;6.30;;;1.93;;
67712;SDS011;67640;55.784;49.138;2023-07-13T08:07:16;6.85;;;2.10;;
67712;SDS011;67640;55.784;49.138;2023-07-13T08:12:22;4.77;;;1.97;;
67712;SDS011;67640;55.784;49.138;2023-07-13T08:17:36;10.82;;;2.58;;
67712;SDS011;67640;55.784;49.138;2023-07-13T08:22:55;4.40;;;1.80;;
67712;SDS011;67640;55.784;49.138;2023-07-13T08:28:09;6.53;;;2.90;;
67712;SDS011;67640;55.784;49.138;2023-07-13T08:33:15;5.03;;;2.27;;
67712;SDS011;67640;55.784;49.138;2023-07-13T08:38:34;3.65;;;1.90;;
67712;SDS011;67640;55.784;49.138;2023-07-13T08:43:39;8.15;;;2.20;;
67712;SDS011;67640;55.784;49.138;2023-07-13T08:54:21;11.97;;;3.30;;
67712;SDS011;67640;55.784;49.138;2023-07-13T08:59:27;8.70;;;3.20;;
67712;SDS011;67640;55.784;49.138;2023-07-13T09:16:03;8.95;;;1.80;;
67712;SDS011;67640;55.784;49.138;2023-07-13T09:26:47;6.33;;;1.47;;
67712;SDS011;67640;55.784;49.138;2023-07-13T09:31:53;8.50;;;1.40;;
67712;SDS011;67640;55.784;49.138;2023-07-13T09:37:13;5.05;;;1.10;;
67712;SDS011;67640;55.784;49.138;2023-07-13T09:42:19;6.20;;;1.50;;
67712;SDS011;67640;55.784;49.138;2023-07-13T09:47:26;4.95;;;1.52;;
67712;SDS011;67640;55.784;49.138;2023-07-13T09:52:46;6.22;;;1.30;;
67712;SDS011;67640;55.784;49.138;2023-07-13T10:09:09;4.90;;;1.50;;
67712;SDS011;67640;55.784;49.138;2023-07-13T10:14:15;14.03;;;1.65;;
67712;SDS011;67640;55.784;49.138;2023-07-13T10:19:22;5.53;;;1.35;;
67712;SDS011;67640;55.784;49.138;2023-07-13T10:24:42;5.23;;;1.43;;
67712;SDS011;67640;55.784;49.138;2023-07-13T10:35:25;7.65;;;1.85;;
67712;SDS011;67640;55.784;49.138;2023-07-13T10:46:25;6.47;;;2.02;;
67712;SDS011;67640;55.784;49.138;2023-07-13T10:51:45;7.15;;;1.42;;
67712;SDS011;67640;55.784;49.138;2023-07-13T11:02:43;9.20;;;1.75;;
67712;SDS011;67640;55.784;49.138;2023-07-13T11:07:32;7.72;;;1.50;;
67712;SDS011;67640;55.784;49.138;2023-07-13T11:18:11;2.70;;;0.90;;
67712;SDS011;67640;55.784;49.138;2023-07-13T11:28:49;5.43;;;1.40;;
67712;SDS011;67640;55.784;49.138;2023-07-13T11:33:56;5.50;;;1.00;;
67712;SDS011;67640;55.784;49.138;2023-07-13T11:44:54;5.20;;;0.90;;
67712;SDS011;67640;55.784;49.138;2023-07-13T11:55:38;8.10;;;1.37;;
67712;SDS011;67640;55.784;49.138;2023-07-13T12:00:44;4.95;;;1.05;;
67712;SDS011;67640;55.784;49.138;2023-07-13T12:11:27;4.40;;;0.90;;
67712;SDS011;67640;55.784;49.138;2023-07-13T12:16:33;10.90;;;1.90;;
67712;SDS011;67640;55.784;49.138;2023-07-13T12:38:34;4.87;;;1.12;;
67712;SDS011;67640;55.784;49.138;2023-07-13T12:43:39;6.47;;;1.37;;
67712;SDS011;67640;55.784;49.138;2023-07-13T12:48:44;9.48;;;2.12;;
67712;SDS011;67640;55.784;49.138;2023-07-13T12:54:22;6.95;;;1.82;;
67712;SDS011;67640;55.784;49.138;2023-07-13T12:59:29;6.50;;;1.67;;
67712;SDS011;67640;55.784;49.138;2023-07-13T13:04:47;7.40;;;1.70;;
67712;SDS011;67640;55.784;49.138;2023-07-13T13:09:52;7.42;;;2.00;;
67712;SDS011;67640;55.784;49.138;2023-07-13T13:15:11;3.95;;;1.15;;
67712;SDS011;67640;55.784;49.138;2023-07-13T13:20:30;4.62;;;1.50;;
67712;SDS011;67640;55.784;49.138;2023-07-13T13:25:35;6.83;;;1.87;;
67712;SDS011;67640;55.784;49.138;2023-07-13T13:30:54;5.57;;;1.50;;
67712;SDS011;67640;55.784;49.138;2023-07-13T13:36:00;3.70;;;1.10;;
67712;SDS011;67640;55.784;49.138;2023-07-13T13:41:05;5.50;;;1.30;;
67712;SDS011;67640;55.784;49.138;2023-07-13T13:46:24;4.10;;;1.30;;
67712;SDS011;67640;55.784;49.138;2023-07-13T13:51:43;7.37;;;1.82;;
67712;SDS011;67640;55.784;49.138;2023-07-13T13:57:03;5.80;;;1.23;;
67712;SDS011;67640;55.784;49.138;2023-07-13T14:07:46;2.90;;;0.85;;
67712;SDS011;67640;55.784;49.138;2023-07-13T14:12:52;9.13;;;1.55;;
67712;SDS011;67640;55.784;49.138;2023-07-13T14:18:12;5.17;;;1.87;;
67712;SDS011;67640;55.784;49.138;2023-07-13T14:23:31;4.65;;;1.50;;
67712;SDS011;67640;55.784;49.138;2023-07-13T14:28:51;3.90;;;1.10;;
67712;SDS011;67640;55.784;49.138;2023-07-13T14:34:11;2.90;;;1.35;;
67712;SDS011;67640;55.784;49.138;2023-07-13T14:39:17;7.60;;;1.45;;
67712;SDS011;67640;55.784;49.138;2023-07-13T14:44:24;5.90;;;1.33;;
67712;SDS011;67640;55.784;49.138;2023-07-13T14:49:44;9.23;;;4.25;;
67712;SDS011;67640;55.784;49.138;2023-07-13T14:55:04;7.55;;;2.02;;
67712;SDS011;67640;55.784;49.138;2023-07-13T15:00:28;5.87;;;1.70;;
67712;SDS011;67640;55.784;49.138;2023-07-13T15:05:34;6.37;;;1.32;;
67712;SDS011;67640;55.784;49.138;2023-07-13T15:10:53;3.60;;;1.30;;
67712;SDS011;67640;55.784;49.138;2023-07-13T15:16:04;2.75;;;1.20;;
67712;SDS011;67640;55.784;49.138;2023-07-13T15:21:25;5.55;;;1.25;;
67712;SDS011;67640;55.784;49.138;2023-07-13T15:26:30;4.05;;;1.42;;
67712;SDS011;67640;55.784;49.138;2023-07-13T15:31:36;4.20;;;1.10;;
67712;SDS011;67640;55.784;49.138;2023-07-13T15:36:54;3.60;;;1.30;;
67712;SDS011;67640;55.784;49.138;2023-07-13T15:41:59;5.03;;;1.10;;
67712;SDS011;67640;55.784;49.138;2023-07-13T15:47:18;4.37;;;1.37;;
67712;SDS011;67640;55.784;49.138;2023-07-13T15:52:38;5.60;;;1.20;;
67712;SDS011;67640;55.784;49.138;2023-07-13T15:57:57;4.70;;;1.10;;
67712;SDS011;67640;55.784;49.138;2023-07-13T16:03:16;6.97;;;1.30;;
67712;SDS011;67640;55.784;49.138;2023-07-13T16:08:24;4.78;;;1.27;;
67712;SDS011;67640;55.784;49.138;2023-07-13T16:13:43;7.57;;;1.30;;
67712;SDS011;67640;55.784;49.138;2023-07-13T16:19:03;5.85;;;1.27;;
67712;SDS011;67640;55.784;49.138;2023-07-13T16:29:30;4.33;;;1.70;;
67712;SDS011;67640;55.784;49.138;2023-07-13T16:34:36;20.75;;;7.80;;
67712;SDS011;67640;55.784;49.138;2023-07-13T16:39:56;14.80;;;5.12;;
67712;SDS011;67640;55.784;49.138;2023-07-13T16:45:15;11.83;;;5.37;;
67712;SDS011;67640;55.784;49.138;2023-07-13T16:50:34;18.30;;;4.33;;
67712;SDS011;67640;55.784;49.138;2023-07-13T16:55:53;7.37;;;2.55;;
67712;SDS011;67640;55.784;49.138;2023-07-13T17:00:59;11.90;;;3.80;;
67712;SDS011;67640;55.784;49.138;2023-07-13T17:11:31;11.00;;;3.00;;
67712;SDS011;67640;55.784;49.138;2023-07-13T17:16:35;14.30;;;4.87;;
67712;SDS011;67640;55.784;49.138;2023-07-13T17:21:53;13.70;;;4.75;;
67712;SDS011;67640;55.784;49.138;2023-07-13T17:26:59;14.23;;;3.90;;
67712;SDS011;67640;55.784;49.138;2023-07-13T17:32:18;10.50;;;3.70;;
67712;SDS011;67640;55.784;49.138;2023-07-13T17:37:38;10.70;;;3.17;;
67712;SDS011;67640;55.784;49.138;2023-07-13T17:42:57;12.28;;;3.10;;
67712;SDS011;67640;55.784;49.138;2023-07-13T17:48:03;12.60;;;3.10;;
67712;SDS011;67640;55.784;49.138;2023-07-13T17:58:46;5.50;;;2.10;;
67712;SDS011;67640;55.784;49.138;2023-07-13T18:03:52;7.80;;;2.27;;
67712;SDS011;67640;55.784;49.138;2023-07-13T18:08:59;5.83;;;2.33;;
67712;SDS011;67640;55.784;49.138;2023-07-13T18:14:20;8.35;;;2.20;;
67712;SDS011;67640;55.784;49.138;2023-07-13T18:30:44;5.62;;;1.90;;
67712;SDS011;67640;55.784;49.138;2023-07-13T18:36:04;7.25;;;1.90;;
67712;SDS011;67640;55.784;49.138;2023-07-13T18:41:23;5.85;;;2.12;;
67712;SDS011;67640;55.784;49.138;2023-07-13T18:46:29;7.97;;;2.00;;
67712;SDS011;67640;55.784;49.138;2023-07-13T18:51:37;7.87;;;1.92;;
67712;SDS011;67640;55.784;49.138;2023-07-13T18:56:56;5.55;;;1.92;;
67712;SDS011;67640;55.784;49.138;2023-07-13T19:02:01;7.25;;;1.85;;
67712;SDS011;67640;55.784;49.138;2023-07-13T19:07:20;6.35;;;1.72;;
67712;SDS011;67640;55.784;49.138;2023-07-13T19:12:25;3.13;;;1.43;;
67712;SDS011;67640;55.784;49.138;2023-07-13T19:17:31;6.72;;;1.60;;
67712;SDS011;67640;55.784;49.138;2023-07-13T19:22:36;13.18;;;2.00;;
67712;SDS011;67640;55.784;49.138;2023-07-13T19:27:56;4.70;;;1.67;;
67712;SDS011;67640;55.784;49.138;2023-07-13T19:33:00;6.87;;;1.62;;
67712;SDS011;67640;55.784;49.138;2023-07-13T19:38:07;4.83;;;1.47;;
67712;SDS011;67640;55.784;49.138;2023-07-13T19:43:27;6.47;;;1.50;;
67712;SDS011;67640;55.784;49.138;2023-07-13T19:48:46;4.87;;;1.50;;
67712;SDS011;67640;55.784;49.138;2023-07-13T19:54:09;5.37;;;1.80;;
67712;SDS011;67640;55.784;49.138;2023-07-13T20:00:01;4.80;;;1.62;;
67712;SDS011;67640;55.784;49.138;2023-07-13T20:04:51;5.53;;;2.00;;
67712;SDS011;67640;55.784;49.138;2023-07-13T20:09:58;6.03;;;1.77;;
67712;SDS011;67640;55.784;49.138;2023-07-13T20:15:18;6.97;;;2.08;;
67712;SDS011;67640;55.784;49.138;2023-07-13T20:20:38;10.50;;;2.40;;
67712;SDS011;67640;55.784;49.138;2023-07-13T20:25:57;5.28;;;1.90;;
67712;SDS011;67640;55.784;49.138;2023-07-13T20:31:02;6.80;;;2.27;;
67712;SDS011;67640;55.784;49.138;2023-07-13T20:36:09;5.43;;;2.30;;
67712;SDS011;67640;55.784;49.138;2023-07-13T20:41:28;7.55;;;2.75;;
67712;SDS011;67640;55.784;49.138;2023-07-13T20:46:34;6.12;;;3.05;;
67712;SDS011;67640;55.784;49.138;2023-07-13T20:51:52;9.95;;;3.30;;
67712;SDS011;67640;55.784;49.138;2023-07-13T20:56:57;9.30;;;3.20;;
67712;SDS011;67640;55.784;49.138;2023-07-13T21:02:09;8.03;;;2.47;;
67712;SDS011;67640;55.784;49.138;2023-07-13T21:07:25;8.23;;;2.87;;
67712;SDS011;67640;55.784;49.138;2023-07-13T21:12:50;8.25;;;2.80;;
67712;SDS011;67640;55.784;49.138;2023-07-13T21:23:52;6.73;;;2.90;;
67712;SDS011;67640;55.784;49.138;2023-07-13T21:29:11;6.47;;;2.98;;
67712;SDS011;67640;55.784;49.138;2023-07-13T21:34:31;5.80;;;2.90;;
67712;SDS011;67640;55.784;49.138;2023-07-13T21:39:36;9.25;;;3.52;;
67712;SDS011;67640;55.784;49.138;2023-07-13T21:44:42;11.12;;;3.40;;
67712;SDS011;67640;55.784;49.138;2023-07-13T21:49:47;8.67;;;3.90;;
67712;SDS011;67640;55.784;49.138;2023-07-13T21:54:53;15.23;;;7.33;;
67712;SDS011;67640;55.784;49.138;2023-07-13T22:05:37;13.37;;;4.60;;
67712;SDS011;67640;55.784;49.138;2023-07-13T22:10:43;16.10;;;4.20;;
67712;SDS011;67640;55.784;49.138;2023-07-13T22:15:48;9.83;;;3.33;;
67712;SDS011;67640;55.784;49.138;2023-07-13T22:21:08;8.60;;;3.40;;
67712;SDS011;67640;55.784;49.138;2023-07-13T22:26:28;6.37;;;2.87;;
67712;SDS011;67640;55.784;49.138;2023-07-13T22:31:44;7.33;;;2.80;;
67712;SDS011;67640;55.784;49.138;2023-07-13T22:37:04;13.95;;;3.58;;
67712;SDS011;67640;55.784;49.138;2023-07-13T22:42:21;10.15;;;3.50;;
67712;SDS011;67640;55.784;49.138;2023-07-13T22:47:26;7.57;;;2.40;;
67712;SDS011;67640;55.784;49.138;2023-07-13T22:52:32;16.02;;;3.17;;
67712;SDS011;67640;55.784;49.138;2023-07-13T22:57:37;14.78;;;3.37;;
67712;SDS011;67640;55.784;49.138;2023-07-13T23:02:56;10.43;;;2.75;;
67712;SDS011;67640;55.784;49.138;2023-07-13T23:08:01;11.50;;;3.60;;
67712;SDS011;67640;55.784;49.138;2023-07-13T23:13:06;18.00;;;5.37;;
67712;SDS011;67640;55.784;49.138;2023-07-13T23:18:25;15.70;;;6.03;;
67712;SDS011;67640;55.784;49.138;2023-07-13T23:23:44;19.95;;;8.43;;
67712;SDS011;67640;55.784;49.138;2023-07-13T23:29:04;20.60;;;7.70;;
67712;SDS011;67640;55.784;49.138;2023-07-13T23:39:47;14.35;;;4.95;;
67712;SDS011;67640;55.784;49.138;2023-07-13T23:44:52;11.30;;;5.30;;
67712;SDS011;67640;55.784;49.138;2023-07-13T23:49:58;14.53;;;7.03;;
67712;SDS011;67640;55.784;49.138;2023-07-13T23:55:18;11.78;;;4.45;;
